Terminal Aerodrome Forecast
Issued by NWS

Home | Current Version | Previous Version | Text Only | Print | Product List | Glossary On
Versions: 1 2 3 4 5 6 7 8 9 10 11 12 13 14 15 16
289
FTUS44 KLZK 040706 AAA
TAFHRO
TAF AMD
KHRO 040706Z 0407/0506 10009KT 5SM BR VCSH OVC007
      TEMPO 0407/0410 1SM -DZ BR VV002
     FM041000 06003KT 1SM BR VCSH OVC004
     FM041800 36005KT P6SM BKN008 OVC015=

USA.gov is the U.S. government's official web portal to all federal, state and local government web resources and services.